Terminal Aerodrome Forecast
Issued by NWS

Home | Current Version | Previous Version | Text Only | Print | Product List | Glossary Off
Versions: 1 2 3 4 5 6 7 8 9 10 11 12 13

573
FTUS42 KMHX 062337
TAFOAJ
TAF
KOAJ 062337Z 0700/0724 02006KT P6SM VCSH OVC070
     FM070700 01010G15KT 6SM -RA SCT025 OVC040
     FM071200 02015G23KT 4SM -RA OVC020
     FM071600 01018G26KT 4SM -RA SCT007 OVC010
      AMD LTD TO CLD VIS AND WIND=

USA.gov is the U.S. government's official web portal to all federal, state and local government web resources and services.